createdAt,value
2018-12-18T00:00:18.829Z,8.24
2018-12-18T00:01:18.811Z,8.29
2018-12-18T00:02:18.789Z,8.32
2018-12-18T00:03:18.773Z,8.24
2018-12-18T00:04:18.747Z,8.37
2018-12-18T00:05:18.723Z,8.38
2018-12-18T00:06:18.702Z,8.39
2018-12-18T00:07:18.680Z,8.41
2018-12-18T00:08:18.660Z,8.29
2018-12-18T00:09:18.639Z,8.37
2018-12-18T00:10:18.628Z,8.32
2018-12-18T00:11:18.598Z,8.31
2018-12-18T00:12:18.574Z,8.38
2018-12-18T00:13:18.554Z,8.37
2018-12-18T00:14:18.541Z,8.29
2018-12-18T00:15:18.516Z,8.31
2018-12-18T00:16:18.489Z,8.29
2018-12-18T00:17:18.469Z,8.24
2018-12-18T00:18:18.448Z,8.19
2018-12-18T00:19:18.426Z,8.29
2018-12-18T00:20:18.408Z,8.32
2018-12-18T00:21:18.383Z,8.29
2018-12-18T00:22:18.364Z,8.32
2018-12-18T00:23:18.349Z,8.31
2018-12-18T00:24:18.318Z,8.28
2018-12-18T00:25:18.301Z,8.19
2018-12-18T00:26:18.284Z,8.20
2018-12-18T00:27:18.268Z,8.16
2018-12-18T00:28:18.237Z,8.09
2018-12-18T00:29:18.214Z,8.09
2018-12-18T00:30:18.203Z,8.17
2018-12-18T00:31:18.171Z,8.13
2018-12-18T00:32:18.151Z,8.16
2018-12-18T00:33:18.131Z,8.23
2018-12-18T00:34:18.115Z,8.21
2018-12-18T00:35:18.096Z,8.20
2018-12-18T00:36:18.069Z,8.23
2018-12-18T00:37:18.047Z,8.20
2018-12-18T00:38:18.038Z,8.23
2018-12-18T00:39:18.003Z,8.20
2018-12-18T00:40:17.988Z,8.19
2018-12-18T00:41:17.961Z,8.12
2018-12-18T00:42:17.949Z,8.20
2018-12-18T00:43:17.919Z,8.23
2018-12-18T00:44:17.906Z,8.19
2018-12-18T00:45:17.879Z,8.24
2018-12-18T00:46:17.869Z,8.19
2018-12-18T00:47:17.838Z,8.20
2018-12-18T00:48:17.816Z,8.19
2018-12-18T00:49:17.795Z,8.19
2018-12-18T00:50:17.775Z,8.26
2018-12-18T00:51:17.757Z,8.26
2018-12-18T00:52:17.729Z,8.20
2018-12-18T00:53:17.708Z,8.19
2018-12-18T00:54:17.690Z,8.31
2018-12-18T00:55:17.681Z,8.29
2018-12-18T00:56:17.645Z,8.31
2018-12-18T00:57:17.633Z,8.26
2018-12-18T00:58:17.606Z,8.21
2018-12-18T00:59:17.581Z,8.20
2018-12-18T01:00:17.560Z,8.19
2018-12-18T01:01:17.540Z,8.19
2018-12-18T01:02:17.519Z,8.20
2018-12-18T01:03:17.506Z,8.31
2018-12-18T01:04:17.481Z,8.31
2018-12-18T01:05:17.465Z,8.28
2018-12-18T01:06:17.435Z,8.24
2018-12-18T01:07:17.426Z,8.37
2018-12-18T01:08:17.426Z,8.26
2018-12-18T01:09:17.372Z,8.16
2018-12-18T01:10:17.359Z,8.19
2018-12-18T01:11:17.330Z,8.29
2018-12-18T01:12:17.310Z,8.24
2018-12-18T01:13:17.290Z,8.24
2018-12-18T01:14:17.267Z,8.23
2018-12-18T01:15:17.253Z,8.31
2018-12-18T01:16:17.229Z,8.26
2018-12-18T01:17:17.212Z,8.26
2018-12-18T01:18:17.184Z,8.26
2018-12-18T01:19:17.162Z,8.24
2018-12-18T01:20:17.141Z,8.31
2018-12-18T01:21:17.121Z,8.23
2018-12-18T01:22:17.106Z,8.31
2018-12-18T01:23:17.082Z,8.34
2018-12-18T01:24:17.057Z,8.39
2018-12-18T01:25:17.038Z,8.29
2018-12-18T01:26:17.017Z,8.34
2018-12-18T01:27:17.004Z,8.24
2018-12-18T01:28:16.975Z,8.23
2018-12-18T01:29:16.963Z,8.29
2018-12-18T01:30:16.934Z,8.24
2018-12-18T01:31:16.914Z,8.24
2018-12-18T01:32:16.897Z,8.20
2018-12-18T01:33:16.871Z,8.19
2018-12-18T01:34:16.854Z,8.20
2018-12-18T01:35:16.829Z,8.19
2018-12-18T01:36:16.813Z,8.20
2018-12-18T01:37:16.796Z,8.20
2018-12-18T01:38:16.767Z,8.20
2018-12-18T01:39:16.750Z,8.16
2018-12-18T01:40:16.726Z,8.17
2018-12-18T01:41:16.706Z,8.17
2018-12-18T01:42:16.687Z,8.31
2018-12-18T01:43:16.665Z,8.24
2018-12-18T01:44:16.651Z,8.20
2018-12-18T01:45:16.624Z,8.32
2018-12-18T01:46:16.601Z,8.21
2018-12-18T01:47:16.580Z,8.34
2018-12-18T01:48:16.560Z,8.29
2018-12-18T01:49:16.537Z,8.31
2018-12-18T01:50:16.513Z,8.39
2018-12-18T01:51:16.492Z,8.28
2018-12-18T01:52:16.470Z,8.24
2018-12-18T01:53:16.454Z,8.14
2018-12-18T01:54:16.437Z,8.14
2018-12-18T01:55:16.408Z,8.20
2018-12-18T01:56:16.394Z,8.23
2018-12-18T01:57:16.368Z,8.23
2018-12-18T01:58:16.350Z,8.19
2018-12-18T01:59:16.334Z,8.29
2018-12-18T02:00:16.316Z,8.20
2018-12-18T02:01:16.285Z,8.16
2018-12-18T02:02:16.266Z,8.17
2018-12-18T02:03:16.244Z,8.12
2018-12-18T02:04:16.223Z,8.14
2018-12-18T02:05:16.202Z,8.17
2018-12-18T02:06:16.179Z,8.20
2018-12-18T02:07:16.158Z,8.14
2018-12-18T02:08:16.139Z,8.19
2018-12-18T02:09:16.119Z,8.19
2018-12-18T02:10:16.096Z,8.20
2018-12-18T02:11:16.072Z,8.19
2018-12-18T02:12:16.051Z,8.19
2018-12-18T02:13:16.032Z,8.19
2018-12-18T02:14:16.012Z,8.19
2018-12-18T02:15:15.989Z,8.29
2018-12-18T02:16:15.967Z,8.16
2018-12-18T02:17:15.957Z,8.21
2018-12-18T02:18:15.926Z,8.19
2018-12-18T02:19:15.904Z,8.20
2018-12-18T02:20:15.883Z,8.21
2018-12-18T02:21:15.867Z,8.19
2018-12-18T02:22:15.849Z,8.26
2018-12-18T02:23:15.819Z,8.34
2018-12-18T02:24:15.799Z,8.37
2018-12-18T02:25:15.778Z,8.29
2018-12-18T02:26:15.759Z,8.19
2018-12-18T02:27:15.746Z,8.20
2018-12-18T02:28:15.718Z,8.20
2018-12-18T02:29:15.697Z,8.19
2018-12-18T02:30:15.680Z,8.19
2018-12-18T02:31:15.651Z,8.31
2018-12-18T02:32:15.636Z,8.34
2018-12-18T02:33:15.617Z,8.38
2018-12-18T02:34:15.592Z,8.26
2018-12-18T02:35:15.569Z,8.37
2018-12-18T02:36:15.548Z,8.23
2018-12-18T02:37:15.527Z,8.24
2018-12-18T02:38:15.506Z,8.21
2018-12-18T02:39:15.484Z,8.31
2018-12-18T02:40:15.470Z,8.20
2018-12-18T02:41:15.452Z,8.35
2018-12-18T02:42:15.425Z,8.29
2018-12-18T02:43:15.400Z,8.23
2018-12-18T02:44:15.387Z,8.26
2018-12-18T02:45:15.359Z,8.23
2018-12-18T02:46:15.338Z,8.34
2018-12-18T02:47:15.322Z,8.23
2018-12-18T02:48:15.298Z,8.31
2018-12-18T02:49:15.273Z,8.26
2018-12-18T02:50:15.254Z,8.26
2018-12-18T02:51:15.235Z,8.21
2018-12-18T02:52:15.210Z,8.28
2018-12-18T02:53:15.190Z,8.29
2018-12-18T02:54:15.181Z,8.24
2018-12-18T02:55:15.146Z,8.34
2018-12-18T02:56:15.128Z,8.23
2018-12-18T02:57:15.105Z,8.20
2018-12-18T02:58:15.090Z,8.23
2018-12-18T02:59:15.072Z,8.19
2018-12-18T03:00:15.046Z,8.16
2018-12-18T03:01:15.022Z,8.17
2018-12-18T03:02:15.006Z,8.17
2018-12-18T03:03:14.978Z,8.19
2018-12-18T03:04:21.300Z,8.16
2018-12-18T03:05:14.936Z,8.17
2018-12-18T03:06:14.916Z,8.19
2018-12-18T03:07:14.952Z,8.31
2018-12-18T03:08:14.875Z,8.31
2018-12-18T03:09:14.855Z,8.26
2018-12-18T03:10:14.835Z,8.34
2018-12-18T03:11:14.808Z,8.35
2018-12-18T03:12:14.790Z,8.26
2018-12-18T03:13:14.770Z,8.34
2018-12-18T03:14:14.751Z,8.31
2018-12-18T03:15:14.726Z,8.35
2018-12-18T03:16:14.704Z,8.24
2018-12-18T03:17:14.687Z,8.12
2018-12-18T03:18:14.667Z,8.21
2018-12-18T03:19:14.649Z,8.28
2018-12-18T03:20:14.620Z,8.24
2018-12-18T03:21:14.600Z,8.29
2018-12-18T03:22:14.586Z,8.32
2018-12-18T03:23:14.569Z,8.26
2018-12-18T03:24:14.538Z,8.34
2018-12-18T03:25:14.519Z,8.20
2018-12-18T03:26:14.497Z,8.32
2018-12-18T03:27:14.483Z,8.32
2018-12-18T03:28:14.454Z,8.23
2018-12-18T03:29:14.435Z,8.37
2018-12-18T03:30:14.414Z,8.31
2018-12-18T03:31:14.391Z,8.19
2018-12-18T03:32:14.386Z,8.17
2018-12-18T03:33:14.352Z,8.26
2018-12-18T03:34:14.327Z,8.29
2018-12-18T03:35:14.307Z,8.26
2018-12-18T03:36:14.285Z,8.26
2018-12-18T03:37:14.265Z,8.32
2018-12-18T03:38:14.241Z,8.24
2018-12-18T03:39:14.221Z,8.14
2018-12-18T03:40:14.199Z,8.19
2018-12-18T03:41:14.182Z,8.14
2018-12-18T03:42:14.164Z,8.16
2018-12-18T03:43:14.138Z,8.13
2018-12-18T03:44:14.118Z,8.16
2018-12-18T03:45:14.100Z,8.14
2018-12-18T03:46:14.073Z,8.16
2018-12-18T03:47:14.049Z,8.20
2018-12-18T03:48:14.030Z,8.16
2018-12-18T03:49:14.026Z,8.17
2018-12-18T03:50:13.989Z,8.21
2018-12-18T03:51:13.965Z,8.14
2018-12-18T03:52:13.947Z,8.23
2018-12-18T03:53:13.929Z,8.20
2018-12-18T03:54:13.905Z,8.13
2018-12-18T03:55:13.896Z,8.14
2018-12-18T03:56:13.864Z,8.12
2018-12-18T03:57:13.840Z,8.17
2018-12-18T03:58:13.822Z,8.19
2018-12-18T03:59:13.806Z,8.19
2018-12-18T04:00:13.779Z,8.21
2018-12-18T04:01:13.761Z,8.17
2018-12-18T04:02:13.734Z,8.20
2018-12-18T04:03:13.713Z,8.20
2018-12-18T04:04:13.691Z,8.20
2018-12-18T04:05:13.671Z,8.21
2018-12-18T04:06:13.652Z,8.31
2018-12-18T04:07:13.629Z,8.17
2018-12-18T04:08:13.611Z,8.21
2018-12-18T04:09:13.594Z,8.20
2018-12-18T04:10:13.566Z,8.19
2018-12-18T04:11:13.566Z,8.19
2018-12-18T04:12:13.527Z,8.19
2018-12-18T04:13:13.504Z,8.19
2018-12-18T04:14:13.481Z,8.16
2018-12-18T04:15:13.463Z,8.16
2018-12-18T04:16:13.440Z,8.21
2018-12-18T04:17:13.421Z,8.17
2018-12-18T04:18:13.396Z,8.13
2018-12-18T04:19:13.376Z,8.21
2018-12-18T04:20:13.356Z,8.05
2018-12-18T04:21:13.336Z,8.14
2018-12-18T04:22:13.311Z,8.02
2018-12-18T04:23:13.291Z,8.10
2018-12-18T04:24:13.268Z,8.09
2018-12-18T04:25:13.246Z,8.10
2018-12-18T04:26:13.228Z,8.09
2018-12-18T04:27:13.206Z,8.02
2018-12-18T04:28:13.182Z,8.12
2018-12-18T04:29:13.167Z,7.99
2018-12-18T04:30:13.145Z,8.06
2018-12-18T04:31:13.126Z,8.14
2018-12-18T04:32:13.099Z,8.23
2018-12-18T04:33:13.078Z,8.14
2018-12-18T04:34:13.057Z,8.16
2018-12-18T04:35:13.039Z,8.16
2018-12-18T04:36:13.014Z,8.19
2018-12-18T04:37:12.994Z,8.17
2018-12-18T04:38:12.975Z,8.20
2018-12-18T04:39:12.950Z,8.20
2018-12-18T04:40:12.930Z,8.09
2018-12-18T04:41:12.916Z,8.01
2018-12-18T04:42:12.886Z,7.94
2018-12-18T04:43:12.874Z,7.98
2018-12-18T04:44:12.860Z,7.94
2018-12-18T04:45:12.826Z,7.98
2018-12-18T04:46:12.806Z,8.02
2018-12-18T04:47:12.783Z,8.06
2018-12-18T04:48:12.766Z,8.04
2018-12-18T04:49:12.739Z,8.05
2018-12-18T04:50:12.719Z,8.09
2018-12-18T04:51:12.697Z,8.05
2018-12-18T04:52:12.677Z,8.04
2018-12-18T04:53:12.654Z,8.09
2018-12-18T04:54:12.639Z,8.01
2018-12-18T04:55:12.613Z,8.10
2018-12-18T04:56:12.596Z,8.04
2018-12-18T04:57:12.570Z,8.09
2018-12-18T04:58:12.551Z,8.05
2018-12-18T04:59:12.528Z,8.05
2018-12-18T05:00:12.510Z,8.04
2018-12-18T05:01:12.487Z,8.05
2018-12-18T05:02:12.528Z,8.12
2018-12-18T05:03:12.445Z,8.04
2018-12-18T05:04:12.428Z,8.05
2018-12-18T05:05:12.407Z,7.98
2018-12-18T05:06:12.384Z,7.94
2018-12-18T05:07:12.363Z,7.95
2018-12-18T05:08:12.339Z,7.86
2018-12-18T05:09:12.328Z,7.95
2018-12-18T05:10:12.304Z,7.92
2018-12-18T05:11:12.275Z,7.95
2018-12-18T05:12:12.256Z,7.98
2018-12-18T05:13:12.237Z,8.12
2018-12-18T05:14:12.211Z,7.95
2018-12-18T05:15:12.194Z,7.98
2018-12-18T05:16:12.170Z,8.04
2018-12-18T05:17:12.149Z,8.04
2018-12-18T05:18:12.130Z,7.98
2018-12-18T05:19:12.110Z,7.98
2018-12-18T05:20:12.602Z,7.91
2018-12-18T05:21:12.069Z,7.94
2018-12-18T05:22:12.052Z,7.91
2018-12-18T05:23:12.025Z,7.86
2018-12-18T05:24:12.013Z,7.81
2018-12-18T05:25:11.994Z,7.87
2018-12-18T05:26:11.961Z,7.96
2018-12-18T05:27:11.943Z,7.86
2018-12-18T05:28:11.918Z,7.81
2018-12-18T05:29:11.897Z,7.81
2018-12-18T05:30:11.884Z,7.77
2018-12-18T05:31:11.865Z,7.81
2018-12-18T05:32:11.832Z,7.83
2018-12-18T05:33:11.815Z,7.92
2018-12-18T05:34:11.794Z,7.95
2018-12-18T05:35:11.773Z,7.92
2018-12-18T05:36:11.750Z,7.95
2018-12-18T05:37:11.736Z,7.98
2018-12-18T05:38:11.706Z,7.99
2018-12-18T05:39:11.690Z,7.99
2018-12-18T05:40:11.662Z,8.04
2018-12-18T05:41:11.640Z,8.02
2018-12-18T05:42:11.622Z,7.96
2018-12-18T05:43:11.598Z,8.01
2018-12-18T05:44:11.576Z,7.98
2018-12-18T05:45:11.557Z,7.95
2018-12-18T05:46:11.541Z,7.98
2018-12-18T05:47:11.513Z,7.92
2018-12-18T05:48:11.501Z,8.04
2018-12-18T05:49:11.472Z,8.04
2018-12-18T05:50:11.454Z,8.01
2018-12-18T05:51:11.432Z,8.05
2018-12-18T05:52:11.412Z,8.02
2018-12-18T05:53:11.390Z,8.09
2018-12-18T05:54:11.377Z,8.02
2018-12-18T05:55:11.346Z,8.01
2018-12-18T05:56:11.326Z,8.12
2018-12-18T05:57:11.303Z,8.12
2018-12-18T05:58:11.283Z,8.06
2018-12-18T05:59:11.260Z,8.14
2018-12-18T06:00:11.239Z,8.10
2018-12-18T06:01:11.223Z,8.13
2018-12-18T06:02:11.211Z,7.94
2018-12-18T06:03:11.183Z,8.06
2018-12-18T06:04:11.157Z,8.02
2018-12-18T06:05:11.137Z,8.01
2018-12-18T06:06:11.125Z,7.98
2018-12-18T06:07:11.092Z,8.05
2018-12-18T06:08:11.074Z,8.06
2018-12-18T06:09:11.056Z,7.95
2018-12-18T06:10:11.033Z,8.04
2018-12-18T06:11:11.010Z,8.01
2018-12-18T06:12:10.990Z,8.02
2018-12-18T06:13:10.969Z,7.99
2018-12-18T06:14:10.962Z,8.09
2018-12-18T06:15:10.928Z,8.09
2018-12-18T06:16:10.907Z,8.01
2018-12-18T06:17:10.887Z,8.04
2018-12-18T06:18:10.874Z,8.09
2018-12-18T06:19:10.845Z,8.01
2018-12-18T06:20:10.823Z,7.98
2018-12-18T06:21:10.810Z,8.04
2018-12-18T06:22:10.784Z,8.04
2018-12-18T06:23:10.765Z,8.05
2018-12-18T06:24:10.740Z,8.10
2018-12-18T06:25:10.719Z,8.10
2018-12-18T06:26:10.699Z,8.06
2018-12-18T06:27:10.676Z,8.05
2018-12-18T06:28:10.653Z,8.02
2018-12-18T06:29:10.636Z,7.98
2018-12-18T06:30:10.611Z,7.98
2018-12-18T06:31:10.600Z,7.95
2018-12-18T06:32:10.578Z,7.95
2018-12-18T06:33:10.550Z,7.99
2018-12-18T06:34:10.528Z,7.95
2018-12-18T06:35:10.688Z,8.02
2018-12-18T06:36:10.486Z,8.02
2018-12-18T06:37:10.465Z,7.96
2018-12-18T06:38:10.453Z,7.95
2018-12-18T06:39:10.427Z,8.05
2018-12-18T06:40:10.404Z,8.05
2018-12-18T06:41:10.387Z,8.02
2018-12-18T06:42:10.362Z,8.05
2018-12-18T06:43:10.341Z,8.05
2018-12-18T06:44:10.329Z,8.05
2018-12-18T06:45:10.302Z,7.92
2018-12-18T06:46:10.279Z,8.01
2018-12-18T06:47:10.256Z,8.02
2018-12-18T06:48:10.242Z,8.02
2018-12-18T06:49:10.220Z,7.94
2018-12-18T06:50:10.207Z,7.95
2018-12-18T06:51:10.179Z,7.80
2018-12-18T06:52:10.153Z,7.78
2018-12-18T06:53:10.132Z,7.77
2018-12-18T06:54:10.113Z,7.64
2018-12-18T06:55:10.090Z,7.71
2018-12-18T06:56:10.069Z,7.76
2018-12-18T06:57:10.051Z,7.68
2018-12-18T06:58:10.029Z,7.69
2018-12-18T06:59:10.007Z,7.68
2018-12-18T07:00:09.994Z,7.66
2018-12-18T07:01:09.965Z,7.55
2018-12-18T07:02:09.947Z,7.71
2018-12-18T07:03:09.922Z,7.60
2018-12-18T07:04:09.913Z,7.81
2018-12-18T07:05:09.880Z,7.66
2018-12-18T07:06:09.862Z,7.61
2018-12-18T07:07:09.838Z,7.64
2018-12-18T07:08:09.816Z,7.50
2018-12-18T07:09:09.803Z,7.43
2018-12-18T07:10:09.778Z,7.43
2018-12-18T07:11:09.755Z,7.52
2018-12-18T07:12:09.735Z,7.47
2018-12-18T07:13:09.723Z,7.44
2018-12-18T07:14:09.695Z,7.36
2018-12-18T07:15:09.672Z,7.29
2018-12-18T07:16:09.662Z,7.39
2018-12-18T07:17:09.639Z,7.31
2018-12-18T07:18:09.612Z,7.28
2018-12-18T07:19:09.590Z,7.24
2018-12-18T07:20:09.573Z,7.28
2018-12-18T07:21:09.548Z,7.24
2018-12-18T07:22:09.527Z,7.25
2018-12-18T07:23:09.506Z,7.26
2018-12-18T07:24:14.037Z,7.24
2018-12-18T07:25:09.464Z,7.16
2018-12-18T07:26:09.443Z,7.11
2018-12-18T07:27:09.428Z,7.18
2018-12-18T07:28:09.398Z,7.19
2018-12-18T07:29:09.379Z,7.21
2018-12-18T07:30:09.354Z,7.15
2018-12-18T07:31:09.336Z,7.21
2018-12-18T07:32:09.314Z,7.19
2018-12-18T07:33:09.290Z,7.03
2018-12-18T07:34:09.267Z,7.06
2018-12-18T07:35:09.246Z,7.03
2018-12-18T07:36:09.225Z,7.01
2018-12-18T07:37:09.209Z,7.00
2018-12-18T07:38:09.187Z,7.07
2018-12-18T07:39:09.166Z,7.06
2018-12-18T07:40:09.139Z,7.03
2018-12-18T07:41:09.119Z,7.01
2018-12-18T07:42:09.097Z,6.93
2018-12-18T07:43:09.074Z,7.07
2018-12-18T07:44:09.054Z,7.03
2018-12-18T07:45:09.033Z,6.97
2018-12-18T07:46:09.012Z,7.06
2018-12-18T07:47:08.987Z,7.06
2018-12-18T07:48:08.968Z,7.07
2018-12-18T07:49:08.947Z,7.10
2018-12-18T07:50:08.925Z,7.10
2018-12-18T07:51:08.903Z,7.11
2018-12-18T07:52:08.880Z,7.15
2018-12-18T07:53:08.861Z,7.10
2018-12-18T07:54:08.840Z,7.10
2018-12-18T07:55:08.815Z,7.11
2018-12-18T07:56:08.795Z,7.07
2018-12-18T07:57:08.779Z,7.04
2018-12-18T07:58:08.753Z,7.04
2018-12-18T07:59:08.737Z,7.03
2018-12-18T08:00:08.714Z,6.99
2018-12-18T08:01:08.689Z,6.97
2018-12-18T08:02:08.669Z,6.89
2018-12-18T08:03:08.647Z,6.92
2018-12-18T08:04:08.623Z,6.93
2018-12-18T08:05:08.604Z,6.93
2018-12-18T08:06:08.585Z,6.89
2018-12-18T08:07:08.561Z,7.01
2018-12-18T08:08:08.540Z,7.00
2018-12-18T08:09:08.518Z,7.03
2018-12-18T08:10:08.495Z,6.91
2018-12-18T08:11:08.481Z,7.01
2018-12-18T08:12:08.455Z,7.03
2018-12-18T08:13:08.432Z,6.92
2018-12-18T08:14:08.408Z,6.93
2018-12-18T08:15:08.386Z,7.03
2018-12-18T08:16:08.368Z,7.03
2018-12-18T08:17:08.343Z,6.97
2018-12-18T08:18:08.327Z,7.03
2018-12-18T08:19:08.307Z,7.01
2018-12-18T08:20:08.282Z,7.04
2018-12-18T08:21:08.260Z,7.11
2018-12-18T08:22:08.241Z,7.34
2018-12-18T08:23:08.215Z,7.24
2018-12-18T08:24:08.194Z,7.39
2018-12-18T08:25:08.173Z,7.47
2018-12-18T08:26:08.158Z,7.66
2018-12-18T08:27:08.195Z,7.54
2018-12-18T08:28:08.114Z,7.52
2018-12-18T08:29:08.090Z,7.49
2018-12-18T08:30:08.071Z,7.76
2018-12-18T08:31:08.059Z,7.88
2018-12-18T08:32:09.536Z,7.88
2018-12-18T08:33:08.013Z,7.76
2018-12-18T08:34:07.989Z,7.66
2018-12-18T08:35:07.970Z,7.74
2018-12-18T08:36:07.954Z,7.74
2018-12-18T08:37:07.933Z,7.87
2018-12-18T08:38:07.911Z,7.92
2018-12-18T08:39:07.896Z,7.98
2018-12-18T08:40:07.871Z,8.19
2018-12-18T08:41:07.851Z,8.17
2018-12-18T08:42:07.835Z,8.62
2018-12-18T08:43:07.815Z,8.78
2018-12-18T08:44:07.793Z,9.33
2018-12-18T08:45:07.777Z,9.09
2018-12-18T08:46:10.402Z,9.14
2018-12-18T08:47:07.742Z,9.45
2018-12-18T08:48:07.727Z,9.29
2018-12-18T08:49:07.704Z,9.87
2018-12-18T08:50:07.687Z,10.39
2018-12-18T08:51:07.671Z,11.01
2018-12-18T08:52:07.653Z,11.49
2018-12-18T08:53:07.637Z,10.62
2018-12-18T08:54:07.630Z,10.70
2018-12-18T08:55:07.606Z,11.28
2018-12-18T08:56:07.592Z,11.51
2018-12-18T08:57:07.577Z,11.25
2018-12-18T08:58:07.561Z,10.85
2018-12-18T08:59:07.547Z,11.05
2018-12-18T09:00:07.536Z,11.05
2018-12-18T09:01:07.521Z,10.76
2018-12-18T09:02:07.506Z,10.62
2018-12-18T09:03:07.506Z,10.80
2018-12-18T09:04:07.476Z,10.80
2018-12-18T09:05:07.464Z,10.98
2018-12-18T09:06:07.446Z,10.94
2018-12-18T09:07:07.453Z,11.00
2018-12-18T09:08:07.423Z,11.51
2018-12-18T09:09:07.417Z,12.04
2018-12-18T09:10:07.394Z,12.53
2018-12-18T09:11:07.381Z,13.02
2018-12-18T09:12:07.370Z,13.17
2018-12-18T09:13:07.356Z,12.62
2018-12-18T09:14:07.348Z,11.93
2018-12-18T09:15:07.334Z,11.84
2018-12-18T09:16:07.327Z,11.62
2018-12-18T09:17:07.319Z,11.56
2018-12-18T09:18:07.304Z,11.36
2018-12-18T09:19:07.289Z,11.54
2018-12-18T09:20:07.274Z,11.89
2018-12-18T09:21:07.270Z,12.48
2018-12-18T09:22:07.260Z,11.87
2018-12-18T09:23:07.241Z,12.00
2018-12-18T09:24:07.234Z,12.65
2018-12-18T09:25:07.228Z,12.99
2018-12-18T09:26:07.208Z,13.57
2018-12-18T09:27:07.196Z,12.17
2018-12-18T09:28:07.183Z,11.87
2018-12-18T09:29:07.174Z,12.25
2018-12-18T09:30:07.164Z,12.05
2018-12-18T09:31:07.153Z,12.55
2018-12-18T09:32:07.140Z,12.61
2018-12-18T09:33:07.133Z,12.98
2018-12-18T09:34:07.125Z,13.02
2018-12-18T09:35:07.129Z,12.47
2018-12-18T09:36:07.105Z,12.51
2018-12-18T09:37:07.092Z,12.93
2018-12-18T09:38:07.082Z,12.73
2018-12-18T09:39:07.072Z,13.20
2018-12-18T09:40:07.066Z,12.81
2018-12-18T09:41:07.049Z,13.13
2018-12-18T09:42:07.037Z,13.73
2018-12-18T09:43:07.033Z,13.01
2018-12-18T09:44:07.020Z,12.90
2018-12-18T09:45:07.020Z,13.13
2018-12-18T09:46:06.998Z,13.63
2018-12-18T09:47:06.989Z,12.35
2018-12-18T09:48:06.989Z,12.63
2018-12-18T09:49:06.970Z,13.02
2018-12-18T09:50:06.964Z,12.22
2018-12-18T09:51:06.947Z,11.87
2018-12-18T09:52:06.939Z,11.91
2018-12-18T09:53:06.926Z,11.37
2018-12-18T09:54:06.915Z,11.58
2018-12-18T09:55:08.077Z,11.82
2018-12-18T09:56:06.893Z,12.23
2018-12-18T09:57:06.882Z,12.25
2018-12-18T09:58:06.874Z,12.86
2018-12-18T09:59:06.864Z,13.26
2018-12-18T10:00:06.857Z,13.58
2018-12-18T10:01:06.848Z,13.17
2018-12-18T10:02:06.832Z,11.61
2018-12-18T10:03:06.822Z,11.09
2018-12-18T10:04:06.808Z,10.87
2018-12-18T10:05:06.794Z,11.13
2018-12-18T10:06:06.783Z,11.52
2018-12-18T10:07:06.775Z,11.69
2018-12-18T10:08:06.758Z,12.59
2018-12-18T10:09:09.702Z,12.11
2018-12-18T10:10:06.744Z,11.82
2018-12-18T10:11:06.725Z,11.52
2018-12-18T10:12:06.713Z,11.95
2018-12-18T10:13:06.702Z,11.96
2018-12-18T10:14:06.692Z,12.14
2018-12-18T10:15:06.677Z,12.21
2018-12-18T10:16:06.666Z,12.66
2018-12-18T10:17:06.656Z,12.54
2018-12-18T10:18:06.644Z,12.29
2018-12-18T10:19:06.631Z,11.69
2018-12-18T10:20:06.619Z,11.73
2018-12-18T10:21:06.606Z,11.36
2018-12-18T10:22:06.608Z,11.80
2018-12-18T10:23:06.582Z,11.76
2018-12-18T10:24:06.570Z,11.69
2018-12-18T10:25:06.559Z,12.05
2018-12-18T10:26:06.553Z,12.35
2018-12-18T10:27:06.535Z,12.25
2018-12-18T10:28:06.520Z,12.91
2018-12-18T10:29:06.509Z,13.51
2018-12-18T10:30:06.498Z,13.71
2018-12-18T10:31:06.487Z,14.26
2018-12-18T10:32:06.473Z,13.78
2018-12-18T10:33:06.466Z,14.15
2018-12-18T10:34:06.453Z,14.55
2018-12-18T10:35:06.446Z,14.74
2018-12-18T10:36:06.430Z,14.22
2018-12-18T10:37:06.421Z,13.29
2018-12-18T10:38:06.409Z,13.19
2018-12-18T10:39:06.395Z,12.98
2018-12-18T10:40:06.383Z,12.91
2018-12-18T10:41:06.369Z,12.68
2018-12-18T10:42:06.362Z,13.13
2018-12-18T10:43:06.349Z,13.13
2018-12-18T10:44:06.337Z,12.10
2018-12-18T10:45:06.324Z,12.21
2018-12-18T10:46:06.309Z,12.73
2018-12-18T10:47:06.308Z,13.20
2018-12-18T10:48:06.293Z,13.65
2018-12-18T10:49:06.277Z,14.12
2018-12-18T10:50:06.266Z,14.12
2018-12-18T10:51:06.252Z,14.19
2018-12-18T10:52:06.244Z,13.82
2018-12-18T10:53:06.233Z,14.21
2018-12-18T10:54:06.214Z,13.78
2018-12-18T10:55:06.204Z,14.33
2018-12-18T10:56:06.199Z,14.71
2018-12-18T10:57:06.186Z,14.95
2018-12-18T10:58:06.169Z,14.36
2018-12-18T10:59:06.156Z,14.45
2018-12-18T11:00:06.143Z,14.49
2018-12-18T11:01:06.133Z,14.41
2018-12-18T11:02:06.123Z,14.61
2018-12-18T11:03:06.114Z,14.55
2018-12-18T11:04:06.107Z,14.59
2018-12-18T11:05:06.082Z,14.16
2018-12-18T11:06:09.767Z,13.58
2018-12-18T11:07:06.062Z,13.02
2018-12-18T11:08:06.050Z,12.65
2018-12-18T11:09:06.038Z,12.63
2018-12-18T11:10:06.017Z,12.79
2018-12-18T11:11:06.013Z,12.99
2018-12-18T11:12:05.991Z,12.95
2018-12-18T11:13:05.981Z,12.88
2018-12-18T11:14:05.982Z,13.02
2018-12-18T11:15:05.959Z,12.76
2018-12-18T11:16:05.947Z,12.98
2018-12-18T11:17:05.933Z,12.77
2018-12-18T11:18:05.920Z,12.30
2018-12-18T11:19:05.902Z,11.96
2018-12-18T11:20:05.896Z,11.91
2018-12-18T11:21:05.877Z,11.97
2018-12-18T11:22:05.864Z,12.33
2018-12-18T11:23:05.848Z,12.47
2018-12-18T11:24:05.834Z,12.53
2018-12-18T11:25:05.824Z,12.76
2018-12-18T11:26:05.807Z,12.35
2018-12-18T11:27:05.795Z,11.88
2018-12-18T11:28:05.777Z,11.36
2018-12-18T11:29:05.771Z,11.46
2018-12-18T11:30:05.749Z,11.49
2018-12-18T11:31:05.732Z,11.33
2018-12-18T11:32:05.719Z,11.30
2018-12-18T11:33:05.703Z,11.41
2018-12-18T11:34:05.686Z,11.74
2018-12-18T11:35:05.674Z,11.89
2018-12-18T11:36:05.659Z,11.71
2018-12-18T11:37:05.643Z,11.49
2018-12-18T11:38:05.638Z,11.41
2018-12-18T11:39:05.610Z,11.51
2018-12-18T11:40:05.596Z,11.62
2018-12-18T11:41:05.580Z,11.30
2018-12-18T11:42:05.567Z,11.28
2018-12-18T11:43:05.551Z,11.51
2018-12-18T11:44:05.534Z,11.51
2018-12-18T11:45:05.518Z,11.40
2018-12-18T11:46:05.503Z,11.61
2018-12-18T11:47:05.489Z,11.46
2018-12-18T11:48:05.476Z,11.51
2018-12-18T11:49:05.455Z,11.74
2018-12-18T11:50:05.441Z,11.91
2018-12-18T11:51:05.426Z,11.55
2018-12-18T11:52:05.409Z,11.16
2018-12-18T11:53:05.404Z,11.05
2018-12-18T11:54:05.387Z,11.05
2018-12-18T11:55:05.367Z,11.08
2018-12-18T11:56:05.350Z,11.15
2018-12-18T11:57:05.332Z,11.08
2018-12-18T11:58:05.313Z,11.25
2018-12-18T11:59:05.295Z,11.09
2018-12-18T12:00:05.279Z,11.30
2018-12-18T12:01:05.272Z,11.36
2018-12-18T12:02:05.252Z,11.20
2018-12-18T12:03:05.234Z,10.98
2018-12-18T12:04:05.219Z,11.09
2018-12-18T12:05:05.207Z,11.15
2018-12-18T12:06:05.185Z,11.11
2018-12-18T12:07:05.163Z,11.01
2018-12-18T12:08:05.153Z,10.93
2018-12-18T12:09:05.130Z,10.78
2018-12-18T12:10:05.118Z,10.87
2018-12-18T12:11:05.101Z,10.87
2018-12-18T12:12:05.083Z,10.98
2018-12-18T12:13:05.067Z,10.93
2018-12-18T12:14:05.044Z,11.01
2018-12-18T12:15:05.030Z,10.86
2018-12-18T12:16:05.010Z,10.95
2018-12-18T12:17:05.005Z,11.25
2018-12-18T12:18:04.981Z,10.97
2018-12-18T12:19:04.962Z,11.01
2018-12-18T12:20:04.945Z,10.91
2018-12-18T12:21:04.928Z,10.87
2018-12-18T12:22:04.905Z,10.95
2018-12-18T12:23:04.895Z,10.83
2018-12-18T12:24:04.874Z,10.78
2018-12-18T12:25:04.854Z,10.78
2018-12-18T12:26:04.835Z,10.97
2018-12-18T12:27:04.820Z,10.86
2018-12-18T12:28:04.810Z,10.70
2018-12-18T12:29:04.792Z,10.91
2018-12-18T12:30:04.765Z,10.83
2018-12-18T12:31:04.746Z,11.03
2018-12-18T12:32:04.730Z,10.91
2018-12-18T12:33:04.711Z,10.80
2018-12-18T12:34:04.695Z,10.87
2018-12-18T12:35:04.675Z,10.76
2018-12-18T12:36:04.657Z,10.57
2018-12-18T12:37:04.639Z,10.62
2018-12-18T12:38:04.621Z,10.73
2018-12-18T12:39:04.603Z,10.93
2018-12-18T12:40:04.589Z,10.78
2018-12-18T12:41:04.572Z,10.79
2018-12-18T12:42:04.548Z,10.75
2018-12-18T12:43:04.526Z,10.61
2018-12-18T12:44:04.524Z,10.75
2018-12-18T12:45:04.489Z,10.80
2018-12-18T12:46:04.475Z,10.86
2018-12-18T12:47:04.452Z,11.00
2018-12-18T12:48:04.436Z,11.04
2018-12-18T12:49:04.433Z,10.86
2018-12-18T12:50:04.400Z,10.75
2018-12-18T12:51:04.378Z,10.72
2018-12-18T12:52:04.363Z,10.65
2018-12-18T12:53:04.345Z,10.76
2018-12-18T12:54:04.325Z,10.67
2018-12-18T12:55:04.316Z,10.58
2018-12-18T12:56:04.289Z,10.55
2018-12-18T12:57:04.299Z,10.58
2018-12-18T12:58:04.252Z,10.55
2018-12-18T12:59:04.235Z,10.61
2018-12-18T13:00:04.217Z,10.67
2018-12-18T13:01:04.199Z,10.45
2018-12-18T13:02:04.178Z,10.35
2018-12-18T13:03:04.159Z,10.55
2018-12-18T13:04:04.148Z,10.54
2018-12-18T13:05:04.121Z,10.35
2018-12-18T13:06:04.118Z,10.43
2018-12-18T13:07:04.095Z,10.38
2018-12-18T13:08:04.068Z,10.27
2018-12-18T13:09:04.044Z,10.35